Time;durP1;ratioP1;P1;durP2;ratioP2;P2;SDS_P1;SDS_P2;PMS_P1;PMS_P2;Temp;Humidity;BMP_temperature;BMP_pressure;BME280_temperature;BME280_humidity;BME280_pressure;Samples;Min_cycle;Max_cycle;Signal;HPM_P1;HPM_P2
2022/01/08 00:03:53;;;;;;;1.83;1.63;;;5.00;99.90;;;;;;10373228;28;20230;-77
2022/01/08 00:08:57;;;;;;;1.50;1.40;;;5.00;99.90;;;;;;10372927;28;20549;-77
2022/01/08 00:13:59;;;;;;;1.43;1.33;;;5.10;99.90;;;;;;10383220;28;20226;-77
2022/01/08 00:19:01;;;;;;;2.13;1.93;;;5.10;99.90;;;;;;10373024;28;20219;-77
2022/01/08 00:24:05;;;;;;;3.20;2.33;;;5.10;99.90;;;;;;10365876;28;20223;-77
2022/01/08 00:29:07;;;;;;;2.43;2.00;;;5.20;99.90;;;;;;10384761;28;20293;-77
2022/01/08 00:34:09;;;;;;;1.80;1.70;;;5.20;99.90;;;;;;10363704;28;20237;-77
2022/01/08 00:39:13;;;;;;;2.93;2.03;;;5.20;99.90;;;;;;10366097;28;20219;-77
2022/01/08 00:44:16;;;;;;;3.40;2.30;;;5.30;99.90;;;;;;10370581;28;20219;-78
2022/01/08 00:49:18;;;;;;;3.17;2.10;;;5.30;99.90;;;;;;10367772;28;20628;-77
2022/01/08 00:54:22;;;;;;;2.30;2.10;;;5.30;99.90;;;;;;10368559;28;20226;-77
2022/01/08 00:59:24;;;;;;;2.40;2.20;;;5.30;99.90;;;;;;10370092;28;20221;-77
2022/01/08 01:04:27;;;;;;;2.60;2.40;;;5.10;99.90;;;;;;10371547;28;20233;-76
2022/01/08 01:09:30;;;;;;;2.50;2.30;;;5.10;99.90;;;;;;10361019;28;20298;-77
2022/01/08 01:14:33;;;;;;;2.23;2.13;;;5.00;99.90;;;;;;10380013;28;20310;-77
2022/01/08 01:19:36;;;;;;;3.60;2.50;;;5.00;99.90;;;;;;10350381;28;20771;-77
2022/01/08 01:24:40;;;;;;;2.97;2.70;;;5.00;99.90;;;;;;10349080;28;20242;-77
2022/01/08 01:29:52;;;;;;;2.97;2.40;;;5.00;99.90;;;;;;10361159;28;20245;-78
2022/01/08 01:50:54;;;;;;;2.73;2.47;;;4.80;99.90;;;;;;10353562;28;20190;-77
2022/01/08 01:55:58;;;;;;;2.90;2.63;;;4.90;99.90;;;;;;10354422;28;20695;-77
2022/01/08 02:01:01;;;;;;;2.70;2.50;;;4.90;99.90;;;;;;10331120;28;20218;-77
2022/01/08 02:06:07;;;;;;;3.27;2.47;;;4.90;99.90;;;;;;10363807;28;20310;-77
2022/01/08 02:11:16;;;;;;;2.30;2.20;;;4.90;99.90;;;;;;10347656;28;20657;-77
2022/01/08 02:16:18;;;;;;;3.13;2.30;;;4.90;99.90;;;;;;10352693;28;20302;-77
2022/01/08 02:21:22;;;;;;;2.63;2.27;;;5.00;99.90;;;;;;10348202;28;20577;-77
2022/01/08 02:26:24;;;;;;;2.43;2.20;;;5.10;99.90;;;;;;10365619;28;20678;-77
2022/01/08 02:31:33;;;;;;;2.00;1.80;;;5.20;99.90;;;;;;10372596;28;20235;-77
2022/01/08 02:36:39;;;;;;;1.70;1.60;;;5.30;99.90;;;;;;10368673;28;20690;-77
2022/01/08 02:41:41;;;;;;;1.97;1.87;;;5.40;99.90;;;;;;10375026;28;20281;-77
2022/01/08 02:46:43;;;;;;;2.60;1.90;;;5.50;99.90;;;;;;10376058;28;20554;-77
2022/01/08 02:51:47;;;;;;;2.00;1.60;;;5.50;99.90;;;;;;10367522;28;20242;-77
2022/01/08 02:56:50;;;;;;;3.07;1.77;;;5.60;99.90;;;;;;10354052;28;20222;-77
2022/01/08 03:01:53;;;;;;;1.60;1.40;;;5.70;99.90;;;;;;10381580;28;20710;-77
2022/01/08 03:06:56;;;;;;;1.67;1.57;;;5.80;99.90;;;;;;10375139;28;20254;-77
2022/01/08 03:11:58;;;;;;;2.10;1.90;;;5.80;99.90;;;;;;10366675;28;20710;-77
2022/01/08 03:17:00;;;;;;;1.90;1.70;;;5.80;99.90;;;;;;10373500;28;20226;-77
2022/01/08 03:22:05;;;;;;;1.77;1.67;;;5.80;99.90;;;;;;10363832;28;20237;-77
2022/01/08 03:27:07;;;;;;;1.90;1.80;;;5.90;99.90;;;;;;10354805;28;20194;-77
2022/01/08 03:32:09;;;;;;;1.60;1.50;;;5.80;99.90;;;;;;10367188;28;20230;-77
2022/01/08 03:37:13;;;;;;;4.30;1.60;;;5.80;99.90;;;;;;10372922;28;20564;-77
2022/01/08 03:42:15;;;;;;;1.80;1.63;;;5.80;99.90;;;;;;10365708;28;20853;-77
2022/01/08 03:47:31;;;;;;;1.77;1.67;;;5.70;99.90;;;;;;10369431;28;20194;-77
2022/01/08 03:52:35;;;;;;;3.20;2.00;;;5.60;99.90;;;;;;10369522;28;20225;-77
2022/01/08 03:57:37;;;;;;;2.20;2.10;;;5.50;99.90;;;;;;10364193;28;20214;-77
2022/01/08 04:02:40;;;;;;;2.83;2.63;;;5.40;99.90;;;;;;10363760;28;20229;-77
2022/01/08 04:07:44;;;;;;;4.43;3.13;;;5.20;99.90;;;;;;10371319;28;20194;-77
2022/01/08 04:12:49;;;;;;;3.17;3.00;;;5.20;99.90;;;;;;10372423;28;20226;-77
2022/01/08 04:17:53;;;;;;;4.40;4.03;;;5.10;99.90;;;;;;10371975;28;20225;-77
2022/01/08 04:22:57;;;;;;;3.70;3.50;;;5.00;99.90;;;;;;10368232;28;20214;-77
2022/01/08 04:27:59;;;;;;;3.70;3.40;;;5.00;99.90;;;;;;10370845;28;20214;-77
2022/01/08 04:33:01;;;;;;;3.60;3.30;;;5.00;99.90;;;;;;10372636;28;20230;-77
2022/01/08 04:38:04;;;;;;;3.77;3.47;;;4.90;99.90;;;;;;10371431;28;20698;-76
2022/01/08 04:43:07;;;;;;;3.93;3.63;;;4.90;99.90;;;;;;10348286;28;20222;-76
2022/01/08 04:48:09;;;;;;;3.43;3.23;;;4.90;99.90;;;;;;10367890;28;20209;-76
2022/01/08 04:53:12;;;;;;;4.67;4.37;;;4.90;99.90;;;;;;10372176;28;20703;-77
2022/01/08 04:58:15;;;;;;;3.70;3.50;;;4.90;99.90;;;;;;10358970;28;20245;-77
2022/01/08 05:03:17;;;;;;;3.50;3.30;;;4.90;99.90;;;;;;10368805;28;20222;-77
2022/01/08 05:08:20;;;;;;;5.30;4.90;;;4.90;99.90;;;;;;10370259;28;20207;-77
2022/01/08 05:13:22;;;;;;;3.70;3.50;;;4.90;99.90;;;;;;10371377;28;20695;-76
2022/01/08 05:18:25;;;;;;;4.03;3.40;;;4.90;99.90;;;;;;10368931;28;20222;-77
2022/01/08 05:23:28;;;;;;;4.27;4.03;;;4.80;99.90;;;;;;10360717;28;20276;-77
2022/01/08 05:28:31;;;;;;;4.23;4.03;;;4.80;99.90;;;;;;10369089;28;20198;-77
2022/01/08 05:33:33;;;;;;;3.90;3.60;;;4.80;99.90;;;;;;10369845;28;20241;-76
2022/01/08 05:38:36;;;;;;;3.80;3.60;;;4.90;99.90;;;;;;10365779;28;20242;-76
2022/01/08 05:43:38;;;;;;;4.43;4.13;;;4.90;99.90;;;;;;10358988;28;20836;-77
2022/01/08 05:48:41;;;;;;;3.50;3.30;;;4.90;99.90;;;;;;10366948;28;20194;-77
2022/01/08 05:53:44;;;;;;;3.53;3.40;;;5.00;99.90;;;;;;10369749;28;20229;-76
2022/01/08 05:58:46;;;;;;;2.37;2.27;;;5.00;99.90;;;;;;10371757;28;20229;-77
2022/01/08 06:03:48;;;;;;;2.23;2.13;;;5.00;99.90;;;;;;10366070;28;20219;-77
2022/01/08 06:08:51;;;;;;;2.77;2.67;;;5.00;99.90;;;;;;10377919;28;20202;-77
2022/01/08 06:13:54;;;;;;;2.47;2.37;;;5.00;99.90;;;;;;10373791;28;20229;-76
2022/01/08 06:18:56;;;;;;;2.20;2.20;;;4.90;99.90;;;;;;10375492;28;20289;-76
2022/01/08 06:23:59;;;;;;;2.60;2.50;;;4.80;99.90;;;;;;10371251;28;20717;-76
2022/01/08 06:29:02;;;;;;;2.80;2.00;;;4.80;99.90;;;;;;10370899;28;20203;-76
2022/01/08 06:34:04;;;;;;;2.30;2.20;;;4.80;99.90;;;;;;10440311;22;20228;-81
2022/01/08 06:39:07;;;;;;;1.90;1.60;;;4.70;99.90;;;;;;10476973;28;20224;-81
2022/01/08 06:44:10;;;;;;;2.10;2.00;;;4.60;99.90;;;;;;10499363;28;20312;-80
2022/01/08 06:49:13;;;;;;;2.20;2.10;;;4.60;99.90;;;;;;10467193;28;20211;-80
2022/01/08 06:54:16;;;;;;;1.90;1.80;;;4.70;99.90;;;;;;10483372;28;20228;-80
2022/01/08 06:59:18;;;;;;;1.80;1.80;;;4.70;99.90;;;;;;10478317;28;20219;-80
2022/01/08 07:04:20;;;;;;;2.33;2.23;;;4.70;99.90;;;;;;10482799;28;20312;-81
2022/01/08 07:09:24;;;;;;;2.20;2.10;;;4.80;99.90;;;;;;10479882;28;20287;-81
2022/01/08 07:14:26;;;;;;;2.10;2.00;;;4.70;99.90;;;;;;10499616;28;20223;-80
2022/01/08 07:19:28;;;;;;;2.13;2.03;;;4.70;99.90;;;;;;10483306;28;20212;-80
2022/01/08 07:24:33;;;;;;;2.00;1.90;;;4.80;99.90;;;;;;10456842;28;20221;-80
2022/01/08 07:29:35;;;;;;;2.03;1.93;;;4.80;99.90;;;;;;10477562;28;20216;-79
2022/01/08 07:34:37;;;;;;;2.57;2.37;;;4.70;99.90;;;;;;10466086;28;20719;-79
2022/01/08 07:39:40;;;;;;;1.83;1.73;;;4.70;99.90;;;;;;10472174;28;20216;-78
2022/01/08 07:44:43;;;;;;;2.70;2.50;;;4.70;99.90;;;;;;10485349;28;20255;-78
2022/01/08 07:49:45;;;;;;;3.90;2.70;;;4.70;99.90;;;;;;10457214;28;20666;-78
2022/01/08 07:54:48;;;;;;;2.00;1.90;;;4.80;99.90;;;;;;10483993;28;20224;-78
2022/01/08 07:59:53;;;;;;;2.10;2.00;;;4.80;99.90;;;;;;10491159;28;20201;-78
2022/01/08 08:04:55;;;;;;;2.17;2.07;;;4.90;99.90;;;;;;10482623;28;20220;-78
2022/01/08 08:10:00;;;;;;;2.67;2.57;;;4.90;99.90;;;;;;10476751;28;20192;-78
2022/01/08 08:15:02;;;;;;;3.63;3.33;;;4.90;99.90;;;;;;10475842;28;20228;-78
2022/01/08 08:20:05;;;;;;;3.53;3.23;;;5.00;99.90;;;;;;10471594;28;20317;-78
2022/01/08 08:25:11;;;;;;;4.17;2.80;;;5.00;99.90;;;;;;10495603;28;20247;-79
2022/01/08 08:30:13;;;;;;;3.07;2.63;;;5.00;99.90;;;;;;10490310;28;20670;-79
2022/01/08 08:35:15;;;;;;;4.33;3.40;;;5.00;99.90;;;;;;10482204;28;20264;-79
2022/01/08 08:40:19;;;;;;;3.63;2.33;;;5.00;99.90;;;;;;10451736;28;20252;-79
2022/01/08 08:45:25;;;;;;;4.73;2.43;;;5.10;99.90;;;;;;10490855;28;20267;-79
2022/01/08 08:50:27;;;;;;;3.43;2.13;;;5.10;99.90;;;;;;10464178;28;20227;-79
2022/01/08 08:55:30;;;;;;;2.57;2.37;;;5.20;99.90;;;;;;10453248;28;20777;-78
2022/01/08 09:00:32;;;;;;;2.20;2.10;;;5.20;99.90;;;;;;10491664;28;20212;-78
2022/01/08 09:05:35;;;;;;;2.20;2.00;;;5.30;99.90;;;;;;10491845;28;20706;-79
2022/01/08 09:10:38;;;;;;;2.50;2.23;;;5.50;99.90;;;;;;10460539;28;20188;-79
2022/01/08 09:15:42;;;;;;;2.53;2.27;;;5.50;99.90;;;;;;10471052;28;20232;-80
2022/01/08 09:20:44;;;;;;;3.17;2.00;;;5.60;99.90;;;;;;10491705;28;20224;-79
2022/01/08 09:25:48;;;;;;;1.97;1.87;;;5.60;99.90;;;;;;10492476;28;20220;-78
2022/01/08 09:30:50;;;;;;;3.13;2.43;;;5.70;99.90;;;;;;10506338;28;20275;-80
2022/01/08 09:35:53;;;;;;;3.23;2.30;;;5.70;99.90;;;;;;10507664;28;20302;-81
2022/01/08 09:40:57;;;;;;;2.60;2.37;;;5.60;99.90;;;;;;10488433;28;20242;-82
2022/01/08 09:45:59;;;;;;;2.90;2.30;;;5.60;99.90;;;;;;10501279;28;20216;-80
2022/01/08 09:51:01;;;;;;;3.50;2.60;;;5.50;99.90;;;;;;10507599;28;20304;-82
2022/01/08 09:56:06;;;;;;;3.17;2.80;;;5.60;99.90;;;;;;10489842;28;20214;-81
2022/01/08 10:01:26;;;;;;;6.90;2.80;;;5.60;99.90;;;;;;10486329;28;20279;-81
2022/01/08 10:06:31;;;;;;;2.30;2.10;;;5.80;99.90;;;;;;10470615;28;20200;-80
2022/01/08 10:11:34;;;;;;;5.90;2.50;;;5.80;99.90;;;;;;10497249;28;20299;-81
2022/01/08 10:22:19;;;;;;;2.50;2.30;;;5.90;99.90;;;;;;10487292;28;20576;-80
2022/01/08 10:27:35;;;;;;;2.50;2.30;;;6.00;99.90;;;;;;10471797;28;20214;-82
2022/01/08 10:32:37;;;;;;;2.70;1.93;;;6.10;99.90;;;;;;10510180;28;20262;-79
2022/01/08 10:37:52;;;;;;;3.43;3.13;;;6.20;99.90;;;;;;10494329;28;20223;-80
2022/01/08 10:42:56;;;;;;;2.80;2.13;;;6.20;99.90;;;;;;10482893;28;20220;-80
2022/01/08 10:48:03;;;;;;;2.33;2.13;;;6.30;99.90;;;;;;10483839;28;20238;-78
2022/01/08 10:53:11;;;;;;;2.63;2.43;;;6.30;99.90;;;;;;10496930;28;20225;-80
2022/01/08 10:58:21;;;;;;;2.73;2.30;;;6.30;99.90;;;;;;10484754;28;20611;-78
2022/01/08 11:03:40;;;;;;;4.30;2.50;;;6.30;99.90;;;;;;10494356;28;20224;-80
2022/01/08 11:08:45;;;;;;;4.77;2.47;;;6.30;99.90;;;;;;10458175;28;20192;-80
2022/01/08 11:13:53;;;;;;;2.77;2.20;;;6.40;99.90;;;;;;10483945;28;20220;-80
2022/01/08 11:18:55;;;;;;;2.37;2.17;;;6.50;99.90;;;;;;10495003;28;20208;-77
2022/01/08 11:24:02;;;;;;;5.70;2.80;;;6.50;99.90;;;;;;10502246;28;20243;-77
2022/01/08 11:29:07;;;;;;;5.40;2.00;;;6.40;99.90;;;;;;10463384;28;20668;-76
2022/01/08 11:34:12;;;;;;;4.10;2.20;;;6.20;99.90;;;;;;10482799;28;20327;-77
2022/01/08 11:39:14;;;;;;;2.13;1.53;;;6.10;99.90;;;;;;10491349;28;20204;-78
2022/01/08 11:44:18;;;;;;;4.73;2.63;;;6.10;99.90;;;;;;10481673;28;20225;-77
2022/01/08 11:49:21;;;;;;;4.50;2.00;;;6.10;99.90;;;;;;10480148;28;20211;-77
2022/01/08 11:54:41;;;;;;;4.20;2.53;;;6.10;99.90;;;;;;10497332;28;20225;-77
2022/01/08 11:59:46;;;;;;;2.60;2.40;;;6.20;99.90;;;;;;10482173;28;20582;-77
2022/01/08 12:04:53;;;;;;;3.20;2.23;;;6.20;99.90;;;;;;10475648;28;20224;-78
2022/01/08 12:10:18;;;;;;;1.50;1.40;;;6.30;99.90;;;;;;10502000;28;20196;-77
2022/01/08 12:15:49;;;;;;;4.30;1.80;;;6.30;99.90;;;;;;10474019;28;20220;-78
2022/01/08 12:20:52;;;;;;;2.27;2.07;;;6.40;99.90;;;;;;10461125;28;20205;-77
2022/01/08 12:25:55;;;;;;;2.77;2.20;;;6.30;99.90;;;;;;10484159;28;20275;-77
2022/01/08 12:31:22;;;;;;;3.60;2.27;;;6.20;99.90;;;;;;10475860;28;20205;-77
2022/01/08 12:36:33;;;;;;;6.10;2.77;;;6.10;99.90;;;;;;10479933;23;20224;-77
2022/01/08 12:41:35;;;;;;;5.03;2.13;;;6.00;99.90;;;;;;10487843;28;20224;-77
2022/01/08 12:46:39;;;;;;;3.50;2.10;;;5.90;99.90;;;;;;10495617;28;20246;-77
2022/01/08 12:51:43;;;;;;;2.53;2.10;;;5.70;99.90;;;;;;10489786;28;20196;-77
2022/01/08 12:56:50;;;;;;;2.77;2.30;;;5.70;99.90;;;;;;10488158;28;20333;-77
2022/01/08 13:01:53;;;;;;;2.50;2.27;;;5.60;99.90;;;;;;10484855;28;20200;-77
2022/01/08 13:06:55;;;;;;;5.03;2.40;;;5.60;99.90;;;;;;10480694;28;20218;-77
2022/01/08 13:11:58;;;;;;;4.40;2.10;;;5.70;99.90;;;;;;10492154;28;20256;-77
2022/01/08 13:17:02;;;;;;;2.33;1.90;;;5.70;99.90;;;;;;10492845;28;20656;-77
2022/01/08 13:22:07;;;;;;;2.50;2.30;;;5.70;99.90;;;;;;10494588;28;20307;-77
2022/01/08 13:27:15;;;;;;;3.10;1.90;;;5.70;99.90;;;;;;10491347;28;20193;-77
2022/01/08 13:32:20;;;;;;;2.40;2.20;;;5.80;99.90;;;;;;10473516;28;20239;-77
2022/01/08 13:37:23;;;;;;;1.70;1.60;;;5.80;99.90;;;;;;10493031;28;20200;-77
2022/01/08 13:42:27;;;;;;;3.00;2.70;;;5.80;99.90;;;;;;10474671;28;20727;-77
2022/01/08 13:47:34;;;;;;;3.03;2.83;;;5.80;99.90;;;;;;10476603;28;20200;-77
2022/01/08 13:52:40;;;;;;;5.40;2.60;;;5.80;99.90;;;;;;10474403;28;20975;-77
2022/01/08 13:57:44;;;;;;;3.43;3.13;;;5.80;99.90;;;;;;10481828;28;20215;-77
2022/01/08 14:02:49;;;;;;;2.73;2.17;;;5.80;99.90;;;;;;10472932;28;20225;-77
2022/01/08 14:08:08;;;;;;;1.80;1.70;;;5.80;99.90;;;;;;10485326;28;20279;-77
2022/01/08 14:13:13;;;;;;;2.00;1.90;;;5.70;99.90;;;;;;10488319;28;20251;-77
2022/01/08 14:18:20;;;;;;;2.17;2.00;;;5.80;99.90;;;;;;10487059;28;20605;-77
2022/01/08 14:23:27;;;;;;;3.83;2.70;;;5.80;99.90;;;;;;10495084;28;20695;-77
2022/01/08 14:28:31;;;;;;;2.80;1.97;;;5.80;99.90;;;;;;10497802;28;20199;-77
2022/01/08 14:33:35;;;;;;;2.87;2.40;;;5.90;99.90;;;;;;10499829;28;20715;-77
2022/01/08 14:38:49;;;;;;;2.13;1.90;;;6.00;99.90;;;;;;10499247;28;20246;-77
2022/01/08 14:43:59;;;;;;;3.17;2.40;;;6.00;99.90;;;;;;10500307;28;20247;-77
2022/01/08 14:49:03;;;;;;;3.60;2.53;;;6.10;99.90;;;;;;10494681;28;20590;-77
2022/01/08 14:54:08;;;;;;;3.73;3.37;;;6.00;99.90;;;;;;10495597;28;20224;-77
2022/01/08 14:59:12;;;;;;;2.90;2.70;;;6.00;99.90;;;;;;10485002;28;20241;-78
2022/01/08 15:04:16;;;;;;;2.97;2.70;;;5.80;99.90;;;;;;10486174;28;20216;-78
2022/01/08 15:09:19;;;;;;;8.37;2.10;;;5.80;99.90;;;;;;10491531;28;20196;-78
2022/01/08 15:14:21;;;;;;;2.50;2.30;;;5.70;99.90;;;;;;10487522;28;20707;-77
2022/01/08 15:19:24;;;;;;;1.70;1.60;;;5.70;99.90;;;;;;10485242;28;20217;-77
2022/01/08 15:24:27;;;;;;;2.03;1.83;;;5.80;99.90;;;;;;10473271;28;20917;-77
2022/01/08 15:29:31;;;;;;;1.80;1.70;;;5.80;99.90;;;;;;10485070;28;20224;-78
2022/01/08 15:34:35;;;;;;;3.70;1.57;;;5.90;99.90;;;;;;10484286;28;20758;-78
2022/01/08 15:39:37;;;;;;;1.70;1.60;;;6.00;99.90;;;;;;10474638;28;20225;-78
2022/01/08 15:44:39;;;;;;;3.83;1.83;;;6.00;99.90;;;;;;10492302;28;20217;-78
2022/01/08 15:49:43;;;;;;;1.90;1.70;;;6.00;99.90;;;;;;10481793;28;20222;-78
2022/01/08 15:54:46;;;;;;;2.00;1.57;;;6.10;99.90;;;;;;10496892;28;20665;-78
2022/01/08 15:59:48;;;;;;;1.40;1.30;;;6.10;99.90;;;;;;10491951;28;20311;-79
2022/01/08 16:04:52;;;;;;;2.33;1.90;;;6.10;99.90;;;;;;10490080;28;20227;-78
2022/01/08 16:09:54;;;;;;;1.50;1.40;;;6.10;99.90;;;;;;10482606;28;20212;-78
2022/01/08 16:14:59;;;;;;;2.07;1.60;;;6.10;99.90;;;;;;10498623;28;20216;-78
2022/01/08 16:20:03;;;;;;;1.27;1.17;;;6.10;99.90;;;;;;10497786;28;20303;-78
2022/01/08 16:25:06;;;;;;;2.77;2.30;;;6.10;99.90;;;;;;10485647;28;20227;-79
2022/01/08 16:30:09;;;;;;;1.80;1.70;;;6.20;99.90;;;;;;10499834;28;20199;-79
2022/01/08 16:35:12;;;;;;;2.53;1.70;;;6.20;99.90;;;;;;10493360;28;20234;-78
2022/01/08 16:40:15;;;;;;;2.47;1.70;;;6.10;99.90;;;;;;10479073;28;20288;-78
2022/01/08 16:45:17;;;;;;;3.83;1.70;;;6.10;99.90;;;;;;10496459;28;20235;-78
2022/01/08 16:50:20;;;;;;;1.87;1.77;;;6.10;99.90;;;;;;10500263;28;20287;-78
2022/01/08 16:55:23;;;;;;;1.63;1.40;;;6.10;99.90;;;;;;10501350;28;20295;-78
2022/01/08 17:00:25;;;;;;;2.40;2.13;;;6.10;99.90;;;;;;10496159;28;20213;-78
2022/01/08 17:05:29;;;;;;;3.17;2.30;;;6.10;99.90;;;;;;10493837;28;20695;-79
2022/01/08 17:10:31;;;;;;;3.20;2.23;;;6.20;99.90;;;;;;10490222;28;20283;-79
2022/01/08 17:15:33;;;;;;;2.00;1.90;;;6.20;99.90;;;;;;10499428;28;20232;-78
2022/01/08 17:20:36;;;;;;;1.90;1.70;;;6.10;99.90;;;;;;10500358;28;20230;-79
2022/01/08 17:25:39;;;;;;;2.17;1.77;;;6.10;99.90;;;;;;10484372;28;20223;-78
2022/01/08 17:30:41;;;;;;;2.13;1.80;;;6.10;99.90;;;;;;10491351;28;20212;-78
2022/01/08 17:35:45;;;;;;;3.63;2.40;;;6.10;99.90;;;;;;10482207;28;20581;-78
2022/01/08 17:40:47;;;;;;;2.30;2.10;;;6.10;99.90;;;;;;10474536;28;20602;-78
2022/01/08 17:45:50;;;;;;;2.00;1.90;;;6.10;99.90;;;;;;10494422;28;20303;-77
2022/01/08 17:50:54;;;;;;;1.90;1.80;;;6.00;99.90;;;;;;10497761;28;20242;-77
2022/01/08 17:55:56;;;;;;;6.40;2.37;;;5.90;99.90;;;;;;10487660;28;20235;-78
2022/01/08 18:00:58;;;;;;;3.27;2.30;;;5.70;99.90;;;;;;10490447;28;20545;-78
2022/01/08 18:06:02;;;;;;;5.00;1.97;;;5.60;99.90;;;;;;10493338;28;20221;-78
2022/01/08 18:11:04;;;;;;;2.83;2.63;;;5.40;99.90;;;;;;10479926;28;20197;-78
2022/01/08 18:16:07;;;;;;;2.73;1.77;;;5.40;99.90;;;;;;10494272;28;20251;-78
2022/01/08 18:21:10;;;;;;;2.40;2.20;;;5.30;99.90;;;;;;10476831;28;20232;-78
2022/01/08 18:26:12;;;;;;;2.20;1.93;;;5.40;99.90;;;;;;10492130;28;20216;-78
2022/01/08 18:31:14;;;;;;;2.13;1.93;;;5.30;99.90;;;;;;10491432;28;20197;-78
2022/01/08 18:36:18;;;;;;;3.33;2.00;;;5.30;99.90;;;;;;10493267;28;20235;-78
2022/01/08 18:41:20;;;;;;;2.40;2.00;;;5.20;99.90;;;;;;10499292;28;20224;-78
2022/01/08 18:46:22;;;;;;;3.10;2.50;;;5.10;99.90;;;;;;10493940;28;20639;-78
2022/01/08 18:51:25;;;;;;;3.53;2.50;;;5.10;99.90;;;;;;10495758;28;20696;-78
2022/01/08 18:56:28;;;;;;;7.77;4.77;;;5.10;99.90;;;;;;10497141;28;20231;-78
2022/01/08 19:01:30;;;;;;;6.00;3.50;;;5.10;99.90;;;;;;10492000;28;20220;-77
2022/01/08 19:06:33;;;;;;;1.83;1.73;;;5.20;99.90;;;;;;10475853;28;20707;-77
2022/01/08 19:11:35;;;;;;;2.37;2.17;;;5.20;99.90;;;;;;10474872;28;20204;-78
2022/01/08 19:16:37;;;;;;;2.90;2.60;;;5.20;99.90;;;;;;10480817;28;20590;-78
2022/01/08 19:21:41;;;;;;;2.50;2.30;;;5.20;99.90;;;;;;10464675;28;20221;-77
2022/01/08 19:26:44;;;;;;;3.70;2.40;;;5.30;99.90;;;;;;10486288;28;20197;-78
2022/01/08 19:31:46;;;;;;;2.73;2.17;;;5.30;99.90;;;;;;10476974;28;20327;-78
2022/01/08 19:36:50;;;;;;;2.37;2.10;;;5.40;99.90;;;;;;10489707;28;20196;-78
2022/01/08 19:41:52;;;;;;;2.27;2.10;;;5.50;99.90;;;;;;10479981;28;20216;-78
2022/01/08 19:46:54;;;;;;;1.80;1.70;;;5.60;99.90;;;;;;10472101;28;20201;-78
2022/01/08 19:51:58;;;;;;;1.90;1.80;;;5.70;99.90;;;;;;10491049;28;20200;-78
2022/01/08 19:57:00;;;;;;;2.50;2.30;;;5.70;99.90;;;;;;10496485;28;20607;-78
2022/01/08 20:02:03;;;;;;;3.13;2.40;;;5.80;99.90;;;;;;10481787;28;20583;-78
2022/01/08 20:07:07;;;;;;;3.33;2.50;;;5.80;99.90;;;;;;10482239;28;20201;-78
2022/01/08 20:12:09;;;;;;;2.70;2.40;;;5.70;99.90;;;;;;10470784;28;20217;-78
2022/01/08 20:17:12;;;;;;;3.27;2.90;;;5.70;99.90;;;;;;10485973;28;20219;-78
2022/01/08 20:22:16;;;;;;;4.30;3.30;;;5.70;99.90;;;;;;10494311;28;20222;-77
2022/01/08 20:27:18;;;;;;;3.60;2.70;;;5.70;99.90;;;;;;10492941;28;20193;-77
2022/01/08 20:32:20;;;;;;;3.00;2.00;;;5.70;99.90;;;;;;10493252;28;20858;-77
2022/01/08 20:37:24;;;;;;;4.03;3.53;;;5.70;99.90;;;;;;10494319;28;20645;-77
2022/01/08 20:42:26;;;;;;;5.10;4.50;;;5.60;99.90;;;;;;10486011;28;20228;-77
2022/01/08 20:47:30;;;;;;;4.73;4.23;;;5.60;99.90;;;;;;10472297;28;20295;-76
2022/01/08 20:52:33;;;;;;;6.03;4.40;;;5.60;99.90;;;;;;10495019;28;20254;-77
2022/01/08 20:57:35;;;;;;;5.00;4.30;;;5.60;99.90;;;;;;10482573;28;20204;-76
2022/01/08 21:02:37;;;;;;;4.43;4.10;;;5.60;99.90;;;;;;10489795;28;20699;-76
2022/01/08 21:07:41;;;;;;;4.13;3.73;;;5.60;99.90;;;;;;10477841;28;20641;-76
2022/01/08 21:12:43;;;;;;;4.07;3.73;;;5.60;99.90;;;;;;10491567;28;20267;-76
2022/01/08 21:17:46;;;;;;;4.23;3.43;;;5.60;99.90;;;;;;10493447;28;20657;-76
2022/01/08 21:22:50;;;;;;;4.20;3.80;;;5.60;99.90;;;;;;10466877;28;20238;-76
2022/01/08 21:27:53;;;;;;;5.03;4.53;;;5.70;99.90;;;;;;10481353;28;20228;-76
2022/01/08 21:32:55;;;;;;;3.63;3.33;;;5.60;99.90;;;;;;10492613;28;20583;-76
2022/01/08 21:38:00;;;;;;;4.27;3.83;;;5.60;99.90;;;;;;10480487;28;20208;-76
2022/01/08 21:43:05;;;;;;;3.80;3.50;;;5.60;99.90;;;;;;10485615;28;20219;-76
2022/01/08 21:48:09;;;;;;;4.70;4.30;;;5.60;99.90;;;;;;10479360;28;20210;-76
2022/01/08 21:53:12;;;;;;;5.10;4.60;;;5.60;99.90;;;;;;10474813;28;20220;-76
2022/01/08 21:58:14;;;;;;;4.43;3.70;;;5.60;99.90;;;;;;10489428;28;20275;-76
2022/01/08 22:03:16;;;;;;;4.23;3.83;;;5.60;99.90;;;;;;10481239;28;20228;-77
2022/01/08 22:08:20;;;;;;;4.07;3.63;;;5.70;99.90;;;;;;10488955;28;20203;-77
2022/01/08 22:13:22;;;;;;;3.63;3.33;;;5.70;99.90;;;;;;10493365;28;20217;-76
2022/01/08 22:18:24;;;;;;;4.07;3.60;;;5.80;99.90;;;;;;10486096;28;20708;-77
2022/01/08 22:23:27;;;;;;;3.77;3.03;;;5.80;99.90;;;;;;10488618;28;20774;-76
2022/01/08 22:28:30;;;;;;;3.33;3.13;;;5.80;99.90;;;;;;10488497;28;20197;-76
2022/01/08 22:33:32;;;;;;;4.63;4.23;;;5.90;99.90;;;;;;10491533;28;20228;-76
2022/01/08 22:38:36;;;;;;;3.17;2.87;;;5.90;99.90;;;;;;10486956;28;20214;-77
2022/01/08 22:43:38;;;;;;;3.43;3.13;;;6.10;99.90;;;;;;10490193;28;20232;-77
2022/01/08 22:48:40;;;;;;;2.60;2.40;;;6.10;99.90;;;;;;10488842;28;20197;-76
2022/01/08 22:53:43;;;;;;;2.90;2.70;;;6.20;99.90;;;;;;10491615;28;20208;-76
2022/01/08 22:58:46;;;;;;;3.17;2.87;;;6.20;99.90;;;;;;10496111;28;20236;-76
2022/01/08 23:03:49;;;;;;;1.97;1.83;;;6.20;99.90;;;;;;10485403;28;20286;-76
2022/01/08 23:08:53;;;;;;;1.90;1.80;;;6.30;99.90;;;;;;10491653;28;20225;-76
2022/01/08 23:13:55;;;;;;;2.70;2.20;;;6.20;99.90;;;;;;10494112;28;20303;-76
2022/01/08 23:18:58;;;;;;;2.50;2.30;;;6.10;99.90;;;;;;10492109;28;20667;-76
2022/01/08 23:24:03;;;;;;;1.77;1.63;;;6.00;99.90;;;;;;10498718;28;20243;-76
2022/01/08 23:29:07;;;;;;;1.40;1.30;;;5.90;99.90;;;;;;10491805;28;20206;-76
2022/01/08 23:34:09;;;;;;;1.77;1.57;;;5.90;99.90;;;;;;10483408;28;20281;-77
2022/01/08 23:39:13;;;;;;;1.00;0.90;;;6.00;99.90;;;;;;10481928;28;20224;-77
2022/01/08 23:44:15;;;;;;;1.50;1.40;;;6.10;99.90;;;;;;10495985;28;20735;-76
2022/01/08 23:49:23;;;;;;;3.30;1.60;;;6.10;99.90;;;;;;10481226;28;20193;-77
2022/01/08 23:54:26;;;;;;;1.33;1.30;;;6.10;99.90;;;;;;10467646;28;20720;-76
2022/01/08 23:59:29;;;;;;;1.50;1.40;;;6.10;99.90;;;;;;10490553;28;20692;-77
